sensor_id;sensor_type;location;lat;lon;timestamp;noise_LAeq;noise_LA_min;noise_LA_max;noise_LA01;noise_LA95
45246;Laerm;31529;51.158;7.354;2023-07-13T00:00:15;37.17;28.97;40.63;;
45246;Laerm;31529;51.158;7.354;2023-07-13T00:00:47;36.42;27.21;42.05;;
45246;Laerm;31529;51.158;7.354;2023-07-13T00:01:18;36.92;5.30;42.39;;
45246;Laerm;31529;51.158;7.354;2023-07-13T00:01:49;35.11;5.30;38.97;;
45246;Laerm;31529;51.158;7.354;2023-07-13T00:02:20;34.53;5.30;38.18;;
45246;Laerm;31529;51.158;7.354;2023-07-13T00:02:52;34.80;5.30;40.00;;
45246;Laerm;31529;51.158;7.354;2023-07-13T00:03:24;35.61;5.30;40.43;;
45246;Laerm;31529;51.158;7.354;2023-07-13T00:03:57;35.69;5.30;43.18;;
45246;Laerm;31529;51.158;7.354;2023-07-13T00:04:28;35.38;5.30;40.73;;
45246;Laerm;31529;51.158;7.354;2023-07-13T00:04:59;35.74;5.30;42.26;;
45246;Laerm;31529;51.158;7.354;2023-07-13T00:05:30;35.36;5.30;39.88;;
45246;Laerm;31529;51.158;7.354;2023-07-13T00:06:02;35.15;5.30;39.76;;
45246;Laerm;31529;51.158;7.354;2023-07-13T00:06:33;35.76;24.20;40.84;;
45246;Laerm;31529;51.158;7.354;2023-07-13T00:07:07;36.60;26.86;41.60;;
45246;Laerm;31529;51.158;7.354;2023-07-13T00:07:38;36.61;5.30;41.52;;
45246;Laerm;31529;51.158;7.354;2023-07-13T00:08:09;36.43;5.30;40.83;;
45246;Laerm;31529;51.158;7.354;2023-07-13T00:08:42;36.66;5.30;41.01;;
45246;Laerm;31529;51.158;7.354;2023-07-13T00:09:14;36.85;24.20;41.83;;
45246;Laerm;31529;51.158;7.354;2023-07-13T00:09:46;36.31;5.30;42.46;;
45246;Laerm;31529;51.158;7.354;2023-07-13T00:10:18;35.83;24.20;41.68;;
45246;Laerm;31529;51.158;7.354;2023-07-13T00:10:51;34.94;5.30;39.11;;
45246;Laerm;31529;51.158;7.354;2023-07-13T00:11:25;34.93;5.30;39.64;;
45246;Laerm;31529;51.158;7.354;2023-07-13T00:11:57;34.63;5.30;38.51;;
45246;Laerm;31529;51.158;7.354;2023-07-13T00:12:34;35.12;5.30;39.76;;
45246;Laerm;31529;51.158;7.354;2023-07-13T00:13:05;35.34;5.30;39.76;;
45246;Laerm;31529;51.158;7.354;2023-07-13T00:13:36;35.73;5.30;42.95;;
45246;Laerm;31529;51.158;7.354;2023-07-13T00:14:10;35.60;24.20;39.51;;
45246;Laerm;31529;51.158;7.354;2023-07-13T00:14:41;35.25;5.30;39.25;;
45246;Laerm;31529;51.158;7.354;2023-07-13T00:15:23;36.17;5.30;42.19;;
45246;Laerm;31529;51.158;7.354;2023-07-13T00:15:57;38.88;27.21;43.79;;
45246;Laerm;31529;51.158;7.354;2023-07-13T00:16:28;57.21;33.23;69.83;;
45246;Laerm;31529;51.158;7.354;2023-07-13T00:16:59;36.21;5.30;39.88;;
45246;Laerm;31529;51.158;7.354;2023-07-13T00:17:31;35.47;24.20;39.38;;
45246;Laerm;31529;51.158;7.354;2023-07-13T00:18:02;40.29;29.87;44.45;;
45246;Laerm;31529;51.158;7.354;2023-07-13T00:18:33;43.71;39.64;45.84;;
45246;Laerm;31529;51.158;7.354;2023-07-13T00:19:05;42.10;37.21;44.84;;
45246;Laerm;31529;51.158;7.354;2023-07-13T00:19:37;39.12;31.98;42.19;;
45246;Laerm;31529;51.158;7.354;2023-07-13T00:20:09;37.57;28.97;41.26;;
45246;Laerm;31529;51.158;7.354;2023-07-13T00:20:40;37.26;28.97;40.43;;
45246;Laerm;31529;51.158;7.354;2023-07-13T00:21:12;37.87;30.22;41.44;;
45246;Laerm;31529;51.158;7.354;2023-07-13T00:21:44;36.89;5.30;41.68;;
45246;Laerm;31529;51.158;7.354;2023-07-13T00:22:15;36.16;24.20;41.44;;
45246;Laerm;31529;51.158;7.354;2023-07-13T00:22:46;35.43;5.30;39.11;;
45246;Laerm;31529;51.158;7.354;2023-07-13T00:23:18;35.55;5.30;39.64;;
45246;Laerm;31529;51.158;7.354;2023-07-13T00:23:49;35.45;5.30;39.64;;
45246;Laerm;31529;51.158;7.354;2023-07-13T00:24:20;35.97;5.30;39.51;;
45246;Laerm;31529;51.158;7.354;2023-07-13T00:24:54;35.87;5.30;41.10;;
45246;Laerm;31529;51.158;7.354;2023-07-13T00:25:27;35.76;5.30;40.11;;
45246;Laerm;31529;51.158;7.354;2023-07-13T00:26:00;35.41;24.20;39.25;;
45246;Laerm;31529;51.158;7.354;2023-07-13T00:26:31;35.18;5.30;40.11;;
45246;Laerm;31529;51.158;7.354;2023-07-13T00:27:03;34.98;5.30;39.51;;
45246;Laerm;31529;51.158;7.354;2023-07-13T00:27:34;34.89;5.30;39.38;;
45246;Laerm;31529;51.158;7.354;2023-07-13T00:28:05;35.08;5.30;40.43;;
45246;Laerm;31529;51.158;7.354;2023-07-13T00:28:36;35.09;5.30;39.25;;
45246;Laerm;31529;51.158;7.354;2023-07-13T00:29:08;35.15;5.30;39.51;;
45246;Laerm;31529;51.158;7.354;2023-07-13T00:29:39;35.27;5.30;41.44;;
45246;Laerm;31529;51.158;7.354;2023-07-13T00:30:11;35.15;5.30;38.97;;
45246;Laerm;31529;51.158;7.354;2023-07-13T00:30:42;35.31;5.30;39.41;;
45246;Laerm;31529;51.158;7.354;2023-07-13T00:31:13;36.51;24.20;42.33;;
45246;Laerm;31529;51.158;7.354;2023-07-13T00:31:47;41.85;36.24;44.73;;
45246;Laerm;31529;51.158;7.354;2023-07-13T00:32:18;41.65;37.62;44.24;;
45246;Laerm;31529;51.158;7.354;2023-07-13T00:32:49;38.88;33.23;42.18;;
45246;Laerm;31529;51.158;7.354;2023-07-13T00:33:21;37.36;28.97;44.53;;
45246;Laerm;31529;51.158;7.354;2023-07-13T00:33:53;36.72;27.21;40.83;;
45246;Laerm;31529;51.158;7.354;2023-07-13T00:34:24;36.66;27.21;43.93;;
45246;Laerm;31529;51.158;7.354;2023-07-13T00:34:55;36.26;24.20;40.29;;
45246;Laerm;31529;51.158;7.354;2023-07-13T00:35:30;41.06;28.97;45.06;;
45246;Laerm;31529;51.158;7.354;2023-07-13T00:36:01;42.95;39.51;45.34;;
45246;Laerm;31529;51.158;7.354;2023-07-13T00:36:33;41.21;36.75;44.41;;
45246;Laerm;31529;51.158;7.354;2023-07-13T00:37:06;38.34;28.97;41.52;;
45246;Laerm;31529;51.158;7.354;2023-07-13T00:37:37;37.59;27.21;42.26;;
45246;Laerm;31529;51.158;7.354;2023-07-13T00:38:08;60.37;38.35;73.15;;
45246;Laerm;31529;51.158;7.354;2023-07-13T00:38:39;43.68;40.73;49.90;;
45246;Laerm;31529;51.158;7.354;2023-07-13T00:39:12;41.62;37.21;44.69;;
45246;Laerm;31529;51.158;7.354;2023-07-13T00:39:43;40.32;34.61;43.84;;
45246;Laerm;31529;51.158;7.354;2023-07-13T00:40:15;37.76;27.21;44.92;;
45246;Laerm;31529;51.158;7.354;2023-07-13T00:40:46;37.16;27.21;44.99;;
45246;Laerm;31529;51.158;7.354;2023-07-13T00:41:17;36.04;24.20;40.83;;
45246;Laerm;31529;51.158;7.354;2023-07-13T00:41:49;36.40;24.20;40.92;;
45246;Laerm;31529;51.158;7.354;2023-07-13T00:42:20;38.60;29.87;42.77;;
45246;Laerm;31529;51.158;7.354;2023-07-13T00:42:52;39.54;34.99;43.09;;
45246;Laerm;31529;51.158;7.354;2023-07-13T00:43:27;37.24;24.20;46.82;;
45246;Laerm;31529;51.158;7.354;2023-07-13T00:43:58;36.14;5.30;40.83;;
45246;Laerm;31529;51.158;7.354;2023-07-13T00:44:29;36.44;5.30;41.98;;
45246;Laerm;31529;51.158;7.354;2023-07-13T00:46:19;36.00;5.30;43.01;;
45246;Laerm;31529;51.158;7.354;2023-07-13T00:46:50;34.97;5.30;40.22;;
45246;Laerm;31529;51.158;7.354;2023-07-13T00:47:21;34.77;5.30;39.11;;
45246;Laerm;31529;51.158;7.354;2023-07-13T00:47:54;35.59;5.30;40.43;;
45246;Laerm;31529;51.158;7.354;2023-07-13T00:48:30;35.83;5.30;39.88;;
45246;Laerm;31529;51.158;7.354;2023-07-13T00:49:05;40.23;5.30;52.56;;
45246;Laerm;31529;51.158;7.354;2023-07-13T00:49:37;36.06;5.30;41.60;;
45246;Laerm;31529;51.158;7.354;2023-07-13T00:50:10;35.63;5.30;39.76;;
45246;Laerm;31529;51.158;7.354;2023-07-13T00:50:44;35.81;5.30;39.11;;
45246;Laerm;31529;51.158;7.354;2023-07-13T00:51:17;36.29;24.20;39.87;;
45246;Laerm;31529;51.158;7.354;2023-07-13T00:51:57;36.31;27.21;40.73;;
45246;Laerm;31529;51.158;7.354;2023-07-13T00:52:30;35.60;24.20;39.38;;
45246;Laerm;31529;51.158;7.354;2023-07-13T00:53:01;35.38;5.30;41.98;;
45246;Laerm;31529;51.158;7.354;2023-07-13T00:53:34;35.08;5.30;38.51;;
45246;Laerm;31529;51.158;7.354;2023-07-13T00:54:07;35.29;24.20;39.25;;
45246;Laerm;31529;51.158;7.354;2023-07-13T00:54:44;35.61;24.20;39.25;;
45246;Laerm;31529;51.158;7.354;2023-07-13T00:55:16;35.95;24.20;40.11;;
45246;Laerm;31529;51.158;7.354;2023-07-13T00:55:49;36.84;5.30;41.19;;
45246;Laerm;31529;51.158;7.354;2023-07-13T00:56:22;37.19;27.21;42.19;;
45246;Laerm;31529;51.158;7.354;2023-07-13T00:56:56;37.93;31.63;41.36;;
45246;Laerm;31529;51.158;7.354;2023-07-13T00:57:28;36.23;24.20;40.11;;
45246;Laerm;31529;51.158;7.354;2023-07-13T00:58:00;45.61;30.22;57.71;;
45246;Laerm;31529;51.158;7.354;2023-07-13T00:58:31;60.10;34.20;73.09;;
45246;Laerm;31529;51.158;7.354;2023-07-13T00:59:03;42.35;35.96;44.99;;
45246;Laerm;31529;51.158;7.354;2023-07-13T00:59:39;43.10;39.76;45.41;;
45246;Laerm;31529;51.158;7.354;2023-07-13T01:00:13;42.07;37.62;44.69;;
45246;Laerm;31529;51.158;7.354;2023-07-13T01:00:46;39.53;32.65;42.52;;
45246;Laerm;31529;51.158;7.354;2023-07-13T01:01:19;38.58;28.97;42.60;;
45246;Laerm;31529;51.158;7.354;2023-07-13T01:01:50;39.30;32.65;42.52;;
45246;Laerm;31529;51.158;7.354;2023-07-13T01:02:22;40.47;35.34;42.83;;
45246;Laerm;31529;51.158;7.354;2023-07-13T01:02:53;38.82;31.98;41.91;;
45246;Laerm;31529;51.158;7.354;2023-07-13T01:03:24;37.09;24.20;41.19;;
45246;Laerm;31529;51.158;7.354;2023-07-13T01:03:55;36.52;5.30;39.88;;
45246;Laerm;31529;51.158;7.354;2023-07-13T01:04:28;36.01;24.20;39.64;;
45246;Laerm;31529;51.158;7.354;2023-07-13T01:04:58;35.88;5.30;39.64;;
45246;Laerm;31529;51.158;7.354;2023-07-13T01:05:32;36.17;5.30;41.36;;
45246;Laerm;31529;51.158;7.354;2023-07-13T01:06:03;36.75;27.21;40.83;;
45246;Laerm;31529;51.158;7.354;2023-07-13T01:06:36;38.32;31.19;41.78;;
45246;Laerm;31529;51.158;7.354;2023-07-13T01:07:07;37.84;24.20;46.45;;
45246;Laerm;31529;51.158;7.354;2023-07-13T01:07:39;37.03;30.22;42.59;;
45246;Laerm;31529;51.158;7.354;2023-07-13T01:08:11;37.27;27.21;41.01;;
45246;Laerm;31529;51.158;7.354;2023-07-13T01:08:42;37.25;28.97;44.37;;
45246;Laerm;31529;51.158;7.354;2023-07-13T01:09:14;36.84;27.21;40.43;;
45246;Laerm;31529;51.158;7.354;2023-07-13T01:09:46;36.48;5.30;39.88;;
45246;Laerm;31529;51.158;7.354;2023-07-13T01:10:21;36.44;24.20;40.83;;
45246;Laerm;31529;51.158;7.354;2023-07-13T01:10:55;37.77;24.20;42.83;;
45246;Laerm;31529;51.158;7.354;2023-07-13T01:11:26;36.31;24.20;40.00;;
45246;Laerm;31529;51.158;7.354;2023-07-13T01:11:57;36.38;24.20;39.87;;
45246;Laerm;31529;51.158;7.354;2023-07-13T01:12:30;36.71;24.20;40.63;;
45246;Laerm;31529;51.158;7.354;2023-07-13T01:13:01;37.34;28.97;40.73;;
45246;Laerm;31529;51.158;7.354;2023-07-13T01:13:34;37.00;5.30;41.60;;
45246;Laerm;31529;51.158;7.354;2023-07-13T01:14:05;37.23;27.21;40.33;;
45246;Laerm;31529;51.158;7.354;2023-07-13T01:14:36;35.36;5.30;39.25;;
45246;Laerm;31529;51.158;7.354;2023-07-13T01:15:33;36.16;5.30;39.64;;
45246;Laerm;31529;51.158;7.354;2023-07-13T01:16:13;36.31;27.21;40.84;;
45246;Laerm;31529;51.158;7.354;2023-07-13T01:16:46;36.86;24.20;40.83;;
45246;Laerm;31529;51.158;7.354;2023-07-13T01:17:18;37.81;27.21;41.68;;
45246;Laerm;31529;51.158;7.354;2023-07-13T01:17:49;37.96;31.98;40.83;;
45246;Laerm;31529;51.158;7.354;2023-07-13T01:18:25;39.55;31.19;45.37;;
45246;Laerm;31529;51.158;7.354;2023-07-13T01:18:58;42.66;35.96;45.93;;
45246;Laerm;31529;51.158;7.354;2023-07-13T01:19:37;61.58;40.00;75.95;;
45246;Laerm;31529;51.158;7.354;2023-07-13T01:20:10;41.99;28.97;54.17;;
45246;Laerm;31529;51.158;7.354;2023-07-13T01:20:46;36.22;24.20;39.76;;
45246;Laerm;31529;51.158;7.354;2023-07-13T01:21:18;37.12;24.20;42.19;;
45246;Laerm;31529;51.158;7.354;2023-07-13T01:21:50;38.03;28.97;41.91;;
45246;Laerm;31529;51.158;7.354;2023-07-13T01:22:23;37.15;23.85;41.19;;
45246;Laerm;31529;51.158;7.354;2023-07-13T01:22:57;35.37;5.30;39.25;;
45246;Laerm;31529;51.158;7.354;2023-07-13T01:23:31;36.50;27.21;40.00;;
45246;Laerm;31529;51.158;7.354;2023-07-13T01:24:02;35.33;5.30;43.06;;
45246;Laerm;31529;51.158;7.354;2023-07-13T01:24:38;35.30;5.30;42.88;;
45246;Laerm;31529;51.158;7.354;2023-07-13T01:25:10;35.61;5.30;39.25;;
45246;Laerm;31529;51.158;7.354;2023-07-13T01:25:41;36.87;24.20;40.73;;
45246;Laerm;31529;51.158;7.354;2023-07-13T01:26:12;38.88;30.22;44.02;;
45246;Laerm;31529;51.158;7.354;2023-07-13T01:26:43;42.76;37.62;45.66;;
45246;Laerm;31529;51.158;7.354;2023-07-13T01:27:16;42.56;38.67;45.44;;
45246;Laerm;31529;51.158;7.354;2023-07-13T01:27:47;39.95;31.19;44.65;;
45246;Laerm;31529;51.158;7.354;2023-07-13T01:28:19;37.32;27.21;40.73;;
45246;Laerm;31529;51.158;7.354;2023-07-13T01:28:50;36.60;24.20;40.83;;
45246;Laerm;31529;51.158;7.354;2023-07-13T01:29:21;38.30;28.97;42.12;;
45246;Laerm;31529;51.158;7.354;2023-07-13T01:29:53;37.13;24.20;43.34;;
45246;Laerm;31529;51.158;7.354;2023-07-13T01:30:32;35.78;5.30;40.00;;
45246;Laerm;31529;51.158;7.354;2023-07-13T01:31:04;35.38;24.20;38.97;;
45246;Laerm;31529;51.158;7.354;2023-07-13T01:31:35;35.35;5.30;40.11;;
45246;Laerm;31529;51.158;7.354;2023-07-13T01:32:07;35.40;5.30;39.51;;
45246;Laerm;31529;51.158;7.354;2023-07-13T01:32:39;35.73;24.20;40.11;;
45246;Laerm;31529;51.158;7.354;2023-07-13T01:33:14;37.58;26.86;42.33;;
45246;Laerm;31529;51.158;7.354;2023-07-13T01:33:47;35.94;5.30;40.83;;
45246;Laerm;31529;51.158;7.354;2023-07-13T01:34:18;36.14;24.20;39.88;;
45246;Laerm;31529;51.158;7.354;2023-07-13T01:34:55;36.94;24.20;42.05;;
45246;Laerm;31529;51.158;7.354;2023-07-13T01:35:26;36.93;28.97;40.92;;
45246;Laerm;31529;51.158;7.354;2023-07-13T01:35:57;36.90;24.20;40.33;;
45246;Laerm;31529;51.158;7.354;2023-07-13T01:36:29;37.24;27.21;41.52;;
45246;Laerm;31529;51.158;7.354;2023-07-13T01:37:00;38.44;31.19;41.78;;
45246;Laerm;31529;51.158;7.354;2023-07-13T01:37:31;37.88;30.22;42.19;;
45246;Laerm;31529;51.158;7.354;2023-07-13T01:38:04;37.63;5.30;41.52;;
45246;Laerm;31529;51.158;7.354;2023-07-13T01:38:36;36.50;27.21;41.19;;
45246;Laerm;31529;51.158;7.354;2023-07-13T01:39:07;36.63;27.21;42.33;;
45246;Laerm;31529;51.158;7.354;2023-07-13T01:39:38;36.26;27.21;39.87;;
45246;Laerm;31529;51.158;7.354;2023-07-13T01:40:09;36.22;23.85;40.22;;
45246;Laerm;31529;51.158;7.354;2023-07-13T01:40:41;38.84;28.97;42.26;;
45246;Laerm;31529;51.158;7.354;2023-07-13T01:41:12;38.84;31.19;45.06;;
45246;Laerm;31529;51.158;7.354;2023-07-13T01:41:43;39.43;33.23;44.61;;
45246;Laerm;31529;51.158;7.354;2023-07-13T01:42:14;37.07;24.20;41.36;;
45246;Laerm;31529;51.158;7.354;2023-07-13T01:42:45;38.40;30.84;42.46;;
45246;Laerm;31529;51.158;7.354;2023-07-13T01:43:17;39.98;31.63;42.95;;
45246;Laerm;31529;51.158;7.354;2023-07-13T01:43:48;39.89;34.20;43.12;;
45246;Laerm;31529;51.158;7.354;2023-07-13T01:44:19;38.22;31.98;41.10;;
45246;Laerm;31529;51.158;7.354;2023-07-13T01:44:51;37.76;30.22;41.76;;
45246;Laerm;31529;51.158;7.354;2023-07-13T01:45:21;59.95;33.23;75.69;;
45246;Laerm;31529;51.158;7.354;2023-07-13T01:45:53;40.81;31.98;44.57;;
45246;Laerm;31529;51.158;7.354;2023-07-13T01:46:24;39.32;30.22;43.59;;
45246;Laerm;31529;51.158;7.354;2023-07-13T01:46:55;44.19;38.51;49.81;;
45246;Laerm;31529;51.158;7.354;2023-07-13T01:47:26;44.42;40.57;46.24;;
45246;Laerm;31529;51.158;7.354;2023-07-13T01:47:58;42.91;39.38;44.61;;
45246;Laerm;31529;51.158;7.354;2023-07-13T01:48:30;41.33;31.98;44.33;;
45246;Laerm;31529;51.158;7.354;2023-07-13T01:49:01;36.67;24.20;41.52;;
45246;Laerm;31529;51.158;7.354;2023-07-13T01:49:33;36.00;5.30;41.91;;
45246;Laerm;31529;51.158;7.354;2023-07-13T01:50:04;38.20;28.97;43.12;;
45246;Laerm;31529;51.158;7.354;2023-07-13T01:50:36;38.25;29.87;42.39;;
45246;Laerm;31529;51.158;7.354;2023-07-13T01:51:07;38.58;30.22;45.17;;
45246;Laerm;31529;51.158;7.354;2023-07-13T01:51:38;36.46;24.20;40.22;;
45246;Laerm;31529;51.158;7.354;2023-07-13T01:52:09;37.18;28.97;40.92;;
45246;Laerm;31529;51.158;7.354;2023-07-13T01:52:40;37.93;27.21;42.12;;
45246;Laerm;31529;51.158;7.354;2023-07-13T01:53:11;37.22;27.21;42.12;;
45246;Laerm;31529;51.158;7.354;2023-07-13T01:53:42;36.04;27.21;40.00;;
45246;Laerm;31529;51.158;7.354;2023-07-13T01:54:13;36.55;5.30;41.19;;
45246;Laerm;31529;51.158;7.354;2023-07-13T01:54:44;37.47;30.22;43.98;;
45246;Laerm;31529;51.158;7.354;2023-07-13T01:55:16;35.84;24.20;39.51;;
45246;Laerm;31529;51.158;7.354;2023-07-13T01:55:48;35.59;5.30;39.38;;
45246;Laerm;31529;51.158;7.354;2023-07-13T01:56:19;36.99;30.22;40.63;;
45246;Laerm;31529;51.158;7.354;2023-07-13T01:56:50;37.10;28.97;42.19;;
45246;Laerm;31529;51.158;7.354;2023-07-13T01:57:21;37.48;27.21;42.19;;
45246;Laerm;31529;51.158;7.354;2023-07-13T01:57:53;36.16;24.20;40.53;;
45246;Laerm;31529;51.158;7.354;2023-07-13T01:58:24;36.34;24.20;40.22;;
45246;Laerm;31529;51.158;7.354;2023-07-13T01:58:55;39.74;28.97;43.44;;
45246;Laerm;31529;51.158;7.354;2023-07-13T01:59:26;39.68;36.24;42.59;;
45246;Laerm;31529;51.158;7.354;2023-07-13T01:59:57;37.84;31.19;40.73;;
45246;Laerm;31529;51.158;7.354;2023-07-13T02:00:28;36.45;24.20;40.33;;
45246;Laerm;31529;51.158;7.354;2023-07-13T02:00:59;36.49;5.30;40.84;;
45246;Laerm;31529;51.158;7.354;2023-07-13T02:01:31;37.09;24.20;40.53;;
45246;Laerm;31529;51.158;7.354;2023-07-13T02:02:02;37.81;28.97;42.39;;
45246;Laerm;31529;51.158;7.354;2023-07-13T02:02:34;38.15;31.19;41.91;;
45246;Laerm;31529;51.158;7.354;2023-07-13T02:03:05;38.13;31.19;41.91;;
45246;Laerm;31529;51.158;7.354;2023-07-13T02:03:37;37.69;24.20;42.05;;
45246;Laerm;31529;51.158;7.354;2023-07-13T02:04:08;36.74;24.20;41.68;;
45246;Laerm;31529;51.158;7.354;2023-07-13T02:04:40;41.74;5.30;46.50;;
45246;Laerm;31529;51.158;7.354;2023-07-13T02:05:12;52.09;43.84;58.71;;
45246;Laerm;31529;51.158;7.354;2023-07-13T02:05:44;50.96;42.59;59.24;;
45246;Laerm;31529;51.158;7.354;2023-07-13T02:06:15;43.34;38.35;46.05;;
45246;Laerm;31529;51.158;7.354;2023-07-13T02:06:46;41.56;35.61;44.41;;
45246;Laerm;31529;51.158;7.354;2023-07-13T02:07:17;39.71;34.99;42.26;;
45246;Laerm;31529;51.158;7.354;2023-07-13T02:07:49;38.12;32.65;41.10;;
45246;Laerm;31529;51.158;7.354;2023-07-13T02:08:20;39.36;35.66;41.91;;
45246;Laerm;31529;51.158;7.354;2023-07-13T02:08:51;39.09;32.65;43.69;;
45246;Laerm;31529;51.158;7.354;2023-07-13T02:09:22;37.79;5.30;43.49;;
45246;Laerm;31529;51.158;7.354;2023-07-13T02:09:54;39.35;28.97;44.81;;
45246;Laerm;31529;51.158;7.354;2023-07-13T02:10:26;39.25;31.98;46.43;;
45246;Laerm;31529;51.158;7.354;2023-07-13T02:10:57;68.21;35.34;82.63;;
45246;Laerm;31529;51.158;7.354;2023-07-13T02:11:28;45.68;41.19;52.63;;
45246;Laerm;31529;51.158;7.354;2023-07-13T02:12:03;42.76;38.51;45.93;;
45246;Laerm;31529;51.158;7.354;2023-07-13T02:12:35;40.88;34.20;43.12;;
45246;Laerm;31529;51.158;7.354;2023-07-13T02:13:07;40.05;34.20;42.46;;
45246;Laerm;31529;51.158;7.354;2023-07-13T02:13:41;39.53;34.61;43.28;;
45246;Laerm;31529;51.158;7.354;2023-07-13T02:14:12;39.52;34.99;42.65;;
45246;Laerm;31529;51.158;7.354;2023-07-13T02:14:43;38.45;33.23;41.44;;
45246;Laerm;31529;51.158;7.354;2023-07-13T02:15:14;39.35;31.98;43.74;;
45246;Laerm;31529;51.158;7.354;2023-07-13T02:15:45;42.78;38.97;44.77;;
45246;Laerm;31529;51.158;7.354;2023-07-13T02:16:16;42.44;39.76;44.77;;
45246;Laerm;31529;51.158;7.354;2023-07-13T02:16:47;44.47;39.88;54.01;;
45246;Laerm;31529;51.158;7.354;2023-07-13T02:17:19;41.38;38.00;44.29;;
45246;Laerm;31529;51.158;7.354;2023-07-13T02:17:50;39.77;31.98;44.73;;
45246;Laerm;31529;51.158;7.354;2023-07-13T02:18:21;40.90;34.99;45.20;;
45246;Laerm;31529;51.158;7.354;2023-07-13T02:18:52;40.07;36.24;43.49;;
45246;Laerm;31529;51.158;7.354;2023-07-13T02:19:24;41.91;37.21;44.92;;
45246;Laerm;31529;51.158;7.354;2023-07-13T02:19:55;41.86;36.24;45.57;;
45246;Laerm;31529;51.158;7.354;2023-07-13T02:20:26;39.73;34.20;42.65;;
45246;Laerm;31529;51.158;7.354;2023-07-13T02:20:57;38.48;33.23;42.83;;
45246;Laerm;31529;51.158;7.354;2023-07-13T02:21:28;38.57;31.98;43.98;;
45246;Laerm;31529;51.158;7.354;2023-07-13T02:21:59;40.78;31.19;46.10;;
45246;Laerm;31529;51.158;7.354;2023-07-13T02:22:31;62.25;36.99;74.57;;
45246;Laerm;31529;51.158;7.354;2023-07-13T02:23:02;39.61;35.34;41.83;;
45246;Laerm;31529;51.158;7.354;2023-07-13T02:23:33;40.43;35.96;43.44;;
45246;Laerm;31529;51.158;7.354;2023-07-13T02:24:04;39.97;36.24;42.05;;
45246;Laerm;31529;51.158;7.354;2023-07-13T02:24:35;38.85;34.20;41.60;;
45246;Laerm;31529;51.158;7.354;2023-07-13T02:25:07;39.04;32.65;42.12;;
45246;Laerm;31529;51.158;7.354;2023-07-13T02:25:38;40.38;36.75;44.61;;
45246;Laerm;31529;51.158;7.354;2023-07-13T02:26:09;40.65;34.61;43.28;;
45246;Laerm;31529;51.158;7.354;2023-07-13T02:26:41;39.28;33.23;41.83;;
45246;Laerm;31529;51.158;7.354;2023-07-13T02:27:12;38.55;33.23;41.44;;
45246;Laerm;31529;51.158;7.354;2023-07-13T02:27:43;39.22;32.65;41.91;;
45246;Laerm;31529;51.158;7.354;2023-07-13T02:28:14;39.06;33.74;41.28;;
45246;Laerm;31529;51.158;7.354;2023-07-13T02:28:45;39.18;33.23;42.39;;
45246;Laerm;31529;51.158;7.354;2023-07-13T02:29:16;38.33;32.65;42.83;;
45246;Laerm;31529;51.158;7.354;2023-07-13T02:29:47;39.60;34.99;41.83;;
45246;Laerm;31529;51.158;7.354;2023-07-13T02:30:18;41.73;37.82;44.88;;
45246;Laerm;31529;51.158;7.354;2023-07-13T02:30:50;41.81;36.50;43.44;;
45246;Laerm;31529;51.158;7.354;2023-07-13T02:31:21;40.21;35.34;46.50;;
45246;Laerm;31529;51.158;7.354;2023-07-13T02:31:52;38.89;34.20;40.92;;
45246;Laerm;31529;51.158;7.354;2023-07-13T02:32:23;65.33;36.75;79.70;;
45246;Laerm;31529;51.158;7.354;2023-07-13T02:32:57;45.53;37.42;56.25;;
45246;Laerm;31529;51.158;7.354;2023-07-13T02:33:28;68.02;36.50;84.28;;
45246;Laerm;31529;51.158;7.354;2023-07-13T02:33:59;62.08;38.82;80.40;;
45246;Laerm;31529;51.158;7.354;2023-07-13T02:34:30;40.08;35.96;42.77;;
45246;Laerm;31529;51.158;7.354;2023-07-13T02:35:01;39.16;34.20;42.36;;
45246;Laerm;31529;51.158;7.354;2023-07-13T02:35:32;39.65;34.61;43.59;;
45246;Laerm;31529;51.158;7.354;2023-07-13T02:36:04;38.47;31.98;42.39;;
45246;Laerm;31529;51.158;7.354;2023-07-13T02:36:36;38.74;30.22;42.19;;
45246;Laerm;31529;51.158;7.354;2023-07-13T02:37:07;38.59;31.19;41.98;;
45246;Laerm;31529;51.158;7.354;2023-07-13T02:37:38;39.28;34.99;41.98;;
45246;Laerm;31529;51.158;7.354;2023-07-13T02:38:09;38.12;31.19;42.59;;
45246;Laerm;31529;51.158;7.354;2023-07-13T02:38:40;42.24;30.22;54.37;;
45246;Laerm;31529;51.158;7.354;2023-07-13T02:39:13;39.28;28.97;47.17;;
45246;Laerm;31529;51.158;7.354;2023-07-13T02:39:44;62.77;38.67;76.97;;
45246;Laerm;31529;51.158;7.354;2023-07-13T02:40:15;40.14;35.34;42.71;;
45246;Laerm;31529;51.158;7.354;2023-07-13T02:40:46;63.49;40.92;77.53;;
45246;Laerm;31529;51.158;7.354;2023-07-13T02:41:17;61.87;41.68;75.16;;
45246;Laerm;31529;51.158;7.354;2023-07-13T02:41:49;67.21;42.59;80.22;;
45246;Laerm;31529;51.158;7.354;2023-07-13T02:42:20;41.83;36.99;46.70;;
45246;Laerm;31529;51.158;7.354;2023-07-13T02:42:51;62.72;36.50;76.10;;
45246;Laerm;31529;51.158;7.354;2023-07-13T02:43:23;41.10;35.96;45.96;;
45246;Laerm;31529;51.158;7.354;2023-07-13T02:43:54;39.56;35.34;41.78;;
45246;Laerm;31529;51.158;7.354;2023-07-13T02:44:33;38.86;31.98;42.77;;
45246;Laerm;31529;51.158;7.354;2023-07-13T02:45:05;40.45;35.66;44.37;;
45246;Laerm;31529;51.158;7.354;2023-07-13T02:45:37;41.21;37.42;43.01;;
45246;Laerm;31529;51.158;7.354;2023-07-13T02:46:08;40.48;36.24;42.46;;
45246;Laerm;31529;51.158;7.354;2023-07-13T02:46:39;42.83;36.75;50.47;;
45246;Laerm;31529;51.158;7.354;2023-07-13T02:47:10;39.67;35.34;42.95;;
45246;Laerm;31529;51.158;7.354;2023-07-13T02:47:41;38.37;33.23;41.28;;
45246;Laerm;31529;51.158;7.354;2023-07-13T02:48:13;42.89;35.89;50.71;;
45246;Laerm;31529;51.158;7.354;2023-07-13T02:48:45;41.76;38.32;46.92;;
45246;Laerm;31529;51.158;7.354;2023-07-13T02:49:16;39.72;34.99;45.03;;
45246;Laerm;31529;51.158;7.354;2023-07-13T02:49:47;38.91;34.61;43.93;;
45246;Laerm;31529;51.158;7.354;2023-07-13T02:50:18;39.83;35.34;43.84;;
45246;Laerm;31529;51.158;7.354;2023-07-13T02:50:50;38.83;31.98;44.81;;
45246;Laerm;31529;51.158;7.354;2023-07-13T02:51:21;39.90;34.99;44.84;;
45246;Laerm;31529;51.158;7.354;2023-07-13T02:51:52;40.31;35.66;44.84;;
45246;Laerm;31529;51.158;7.354;2023-07-13T02:52:23;41.77;38.18;45.90;;
45246;Laerm;31529;51.158;7.354;2023-07-13T02:52:54;65.43;41.83;79.56;;
45246;Laerm;31529;51.158;7.354;2023-07-13T02:53:25;40.51;36.99;45.10;;
45246;Laerm;31529;51.158;7.354;2023-07-13T02:53:56;40.21;36.75;42.39;;
45246;Laerm;31529;51.158;7.354;2023-07-13T02:54:27;41.39;37.82;46.40;;
45246;Laerm;31529;51.158;7.354;2023-07-13T02:54:58;42.05;39.51;44.29;;
45246;Laerm;31529;51.158;7.354;2023-07-13T02:55:29;67.47;41.10;79.73;;
45246;Laerm;31529;51.158;7.354;2023-07-13T02:56:01;43.06;38.00;49.15;;
45246;Laerm;31529;51.158;7.354;2023-07-13T02:56:32;39.81;35.66;42.77;;
45246;Laerm;31529;51.158;7.354;2023-07-13T02:57:03;62.19;37.62;74.95;;
45246;Laerm;31529;51.158;7.354;2023-07-13T02:57:34;47.28;38.35;59.15;;
45246;Laerm;31529;51.158;7.354;2023-07-13T02:58:06;41.18;37.82;45.06;;
45246;Laerm;31529;51.158;7.354;2023-07-13T02:58:38;40.88;37.62;43.93;;
45246;Laerm;31529;51.158;7.354;2023-07-13T02:59:09;40.75;37.82;43.69;;
45246;Laerm;31529;51.158;7.354;2023-07-13T02:59:41;40.44;36.99;43.23;;
45246;Laerm;31529;51.158;7.354;2023-07-13T03:00:12;40.10;36.24;42.89;;
45246;Laerm;31529;51.158;7.354;2023-07-13T03:00:44;40.62;36.75;45.57;;